Accueil
METAR-TAF:

METAR-TAF

Aéroports :

Tokyo-Haneda, Japon

Aéroport international de Tokyo-Haneda

latitude: 35-33N, longitude: 139-47E, altitude: 5 m

Observation

Le bulletin a été fait il y a 14 minutes, à 16:00 UTC
Vent 13 kt de nord
Température 7°C
Humidité 45%
Pression 1023 hPa
Visibilité 10 km ou plus
pas de nuages en-dessous de 1500 mètres et pas de cumulonimbus.

METAR: RJTT 241600Z 01013KT CAVOK 07/M04 Q1023 NOSIG RMK A3023

Heure: 01:14 (16:14 UTC)

Prévision

Le bulletin a été fait il y a 5 heures et 8 minutes, à 11:06 UTC
Prévision valable du 24 à 12 UTC au 25 à 18 UTC
Vent 16 kt de nord
Visibilité 10 km ou plus
Quelques nuages à une hauteur de 3000 ft
Evoluant progressivement
du 25 à 03 UTC au 25 à 06 UTC
Vent 12 kt de est
Evoluant progressivement
du 25 à 12 UTC au 25 à 15 UTC
Vent 10 kt de nord/nord-est

TAF: RJTT 241106Z 2412/2518 36016KT 9999 FEW030 BECMG 2503/2506 09012KT BECMG 2512/2515 02010KT

Observations et prévisions météorologiques de plus de 4000 aéroports (messages METAR et TAF).

Les stations disponibles sont représentées par des disques jaunes et rouges sur la carte.

Passer la souris dessus pour voir le nom de la station.

Cliquer dessus pour voir les observations et prévisions météorologiques.

Pour changer de carte: cliquez sur les boutons verts avec une croix noire pour zoomer, sur le bouton vert avec un tiret pour effectuer un zoom arrière, ou sur les flèches vertes pour les cartes adjacentes.


METAR-TAF: